Time;durP1;ratioP1;P1;durP2;ratioP2;P2;SDS_P1;SDS_P2;PMS_P1;PMS_P2;Temp;Humidity;BMP_temperature;BMP_pressure;BME280_temperature;BME280_humidity;BME280_pressure;Samples;Min_cycle;Max_cycle;Signal;HPM_P1;HPM_P2
2023/12/13 00:01:26;;;;;;;58.45;25.65;;;;;;;8.39;100.00;99694.19;5107110;27;20068;-76
2023/12/13 00:03:56;;;;;;;53.13;25.15;;;;;;;8.48;100.00;99696.16;5099346;27;20040;-74
2023/12/13 00:06:23;;;;;;;55.60;26.05;;;;;;;8.42;100.00;99686.81;5107761;27;20043;-75
2023/12/13 00:08:49;;;;;;;51.33;24.90;;;;;;;8.52;100.00;99687.84;5111309;27;20028;-75
2023/12/13 00:11:14;;;;;;;48.42;24.77;;;;;;;8.59;100.00;99687.41;5115288;27;20414;-76
2023/12/13 00:13:44;;;;;;;41.13;21.92;;;;;;;8.61;100.00;99688.13;5099351;27;20051;-75
2023/12/13 00:16:10;;;;;;;53.67;25.25;;;;;;;8.56;100.00;99685.81;5102267;27;20162;-76
2023/12/13 00:18:36;;;;;;;51.33;23.90;;;;;;;8.60;100.00;99689.09;5096754;27;20040;-75
2023/12/13 00:21:05;;;;;;;51.80;24.55;;;;;;;8.64;100.00;99686.13;5104663;27;20032;-76
2023/12/13 00:23:32;;;;;;;53.25;25.02;;;;;;;8.55;100.00;99676.16;5105576;27;20072;-75
2023/12/13 00:26:00;;;;;;;51.35;23.42;;;;;;;8.63;100.00;99673.75;5102946;27;20038;-75
2023/12/13 00:28:25;;;;;;;55.08;25.10;;;;;;;8.61;100.00;99667.72;5098125;27;20218;-76
2023/12/13 00:30:51;;;;;;;48.63;23.52;;;;;;;8.57;100.00;99674.22;5109244;27;20034;-76
2023/12/13 00:33:16;;;;;;;49.58;22.35;;;;;;;8.56;100.00;99665.41;5113020;27;20035;-74
2023/12/13 00:35:42;;;;;;;46.28;22.95;;;;;;;8.52;100.00;99666.59;5110479;27;20880;-75
2023/12/13 00:38:09;;;;;;;61.10;22.70;;;;;;;8.52;100.00;99666.59;5102024;27;20493;-75
2023/12/13 00:40:37;;;;;;;61.33;26.95;;;;;;;8.46;100.00;99660.91;5072375;27;20032;-75
2023/12/13 00:43:06;;;;;;;61.75;26.10;;;;;;;8.43;100.00;99666.41;5102915;27;20040;-76
2023/12/13 00:45:38;;;;;;;46.90;24.08;;;;;;;8.44;100.00;99668.13;5097146;27;20047;-75
2023/12/13 00:48:08;;;;;;;53.85;26.38;;;;;;;8.47;100.00;99673.22;5110657;27;20023;-75
2023/12/13 00:50:37;;;;;;;56.80;25.52;;;;;;;8.47;100.00;99663.44;5111322;27;20043;-75
2023/12/13 00:53:08;;;;;;;39.50;21.33;;;;;;;8.44;100.00;99665.47;5106257;27;20040;-76
2023/12/13 00:55:33;;;;;;;44.72;21.33;;;;;;;8.49;100.00;99666.84;5106935;27;20484;-74
2023/12/13 00:58:08;;;;;;;39.55;18.15;;;;;;;8.53;100.00;99670.09;5097815;27;20032;-75
2023/12/13 01:00:34;;;;;;;28.13;15.77;;;;;;;8.51;100.00;99677.34;5095496;27;20059;-75
2023/12/13 01:02:59;;;;;;;31.55;14.55;;;;;;;8.58;100.00;99681.22;5103719;27;23561;-75
2023/12/13 01:05:25;;;;;;;33.78;13.93;;;;;;;8.57;100.00;99676.88;5112430;27;20040;-75
2023/12/13 01:07:54;;;;;;;33.65;14.57;;;;;;;8.45;100.00;99670.66;5113507;27;20110;-75
2023/12/13 01:10:20;;;;;;;23.85;13.02;;;;;;;8.53;100.00;99670.97;5112955;27;20030;-75
2023/12/13 01:12:49;;;;;;;31.13;13.60;;;;;;;8.61;100.00;99681.00;5107992;27;20138;-75
2023/12/13 01:15:17;;;;;;;28.15;15.02;;;;;;;8.62;100.00;99674.72;5098894;27;20039;-75
2023/12/13 01:17:43;;;;;;;30.02;14.98;;;;;;;8.61;100.00;99677.50;5106385;27;20028;-75
2023/12/13 01:20:09;;;;;;;33.47;16.52;;;;;;;8.43;100.00;99679.69;5106524;27;20501;-75
2023/12/13 01:22:38;;;;;;;32.10;15.80;;;;;;;8.51;100.00;99675.53;5112289;27;20024;-76
2023/12/13 01:25:07;;;;;;;31.80;16.00;;;;;;;8.58;100.00;99675.91;5106932;27;20044;-76
2023/12/13 01:27:40;;;;;;;38.67;17.98;;;;;;;8.47;100.00;99681.19;5105640;27;20546;-75
2023/12/13 01:30:08;;;;;;;32.30;17.88;;;;;;;8.49;100.00;99680.13;5098862;27;20032;-76
2023/12/13 01:32:35;;;;;;;39.08;18.65;;;;;;;8.45;100.00;99677.78;5087877;27;21215;-75
2023/12/13 01:35:07;;;;;;;31.92;16.52;;;;;;;8.46;100.00;99680.34;5089885;27;20032;-77
2023/12/13 01:37:32;;;;;;;30.95;16.95;;;;;;;8.44;100.00;99682.25;5100703;27;20028;-76
2023/12/13 01:39:58;;;;;;;34.35;17.60;;;;;;;8.48;100.00;99677.56;5089507;27;20660;-75
2023/12/13 01:42:29;;;;;;;43.78;19.92;;;;;;;8.39;100.00;99676.44;5106165;27;20105;-74
2023/12/13 01:44:57;;;;;;;43.42;23.30;;;;;;;8.38;100.00;99687.16;5090698;27;20146;-75
2023/12/13 01:47:23;;;;;;;34.95;17.95;;;;;;;8.38;100.00;99687.16;5096307;27;20032;-75
2023/12/13 01:49:49;;;;;;;28.40;14.25;;;;;;;8.42;100.00;99683.31;5106151;27;20054;-74
2023/12/13 01:52:15;;;;;;;28.02;11.85;;;;;;;8.43;100.00;99683.19;5105566;27;20922;-75
2023/12/13 01:54:41;;;;;;;21.98;8.77;;;;;;;8.43;100.00;99683.19;5102501;27;20090;-75
2023/12/13 01:57:09;;;;;;;21.17;9.73;;;;;;;8.41;100.00;99686.94;5092576;27;20051;-75
2023/12/13 01:59:37;;;;;;;23.48;9.80;;;;;;;8.34;100.00;99680.38;5105179;27;20114;-75
2023/12/13 02:02:06;;;;;;;16.10;8.88;;;;;;;8.36;100.00;99681.97;5081925;27;20038;-77
2023/12/13 02:04:36;;;;;;;17.52;8.95;;;;;;;8.32;100.00;99691.06;5104936;27;20044;-75
2023/12/13 02:07:02;;;;;;;20.27;9.13;;;;;;;8.39;100.00;99687.06;5107874;27;20059;-75
2023/12/13 02:09:29;;;;;;;17.45;8.68;;;;;;;8.31;100.00;99684.91;5110296;27;20028;-76
2023/12/13 02:11:55;;;;;;;28.10;9.60;;;;;;;8.31;100.00;99684.06;5106787;27;20514;-75
2023/12/13 02:14:25;;;;;;;18.90;9.43;;;;;;;8.37;100.00;99690.78;5091913;27;20595;-76
2023/12/13 02:16:50;;;;;;;20.55;8.88;;;;;;;8.30;100.00;99687.69;5107154;27;20090;-75
2023/12/13 02:19:16;;;;;;;18.73;8.38;;;;;;;8.37;100.00;99682.81;5086918;27;20047;-75
2023/12/13 02:21:42;;;;;;;18.70;9.88;;;;;;;8.25;100.00;99684.53;5098205;27;20040;-75
2023/12/13 02:24:08;;;;;;;23.48;8.75;;;;;;;8.32;100.00;99677.78;5102975;27;20039;-76
2023/12/13 02:26:39;;;;;;;16.60;8.30;;;;;;;8.26;100.00;99673.78;5081066;27;20037;-75
2023/12/13 02:29:09;;;;;;;19.67;7.40;;;;;;;8.24;100.00;99675.72;5075592;27;20032;-76
2023/12/13 02:31:43;;;;;;;14.85;6.95;;;;;;;8.31;100.00;99673.44;5080818;27;20028;-75
2023/12/13 02:34:09;;;;;;;14.63;7.63;;;;;;;8.28;100.00;99676.31;5099360;27;20612;-75
2023/12/13 02:36:37;;;;;;;20.85;8.52;;;;;;;8.26;100.00;99670.28;5103086;27;20036;-76
2023/12/13 02:39:07;;;;;;;20.20;7.78;;;;;;;8.20;100.00;99668.94;5104510;27;20047;-76
2023/12/13 02:41:32;;;;;;;19.45;7.63;;;;;;;8.22;100.00;99666.16;5065747;27;20872;-76
2023/12/13 02:43:59;;;;;;;13.93;7.93;;;;;;;8.32;100.00;99668.03;5088541;28;20044;-76
2023/12/13 02:46:26;;;;;;;14.55;7.00;;;;;;;8.17;100.00;99662.97;5110513;27;20522;-75
2023/12/13 02:48:51;;;;;;;19.77;7.68;;;;;;;8.26;100.00;99665.81;5089318;27;20074;-76
2023/12/13 02:51:17;;;;;;;21.55;7.47;;;;;;;8.26;100.00;99657.00;5096713;27;20776;-76
2023/12/13 02:53:43;;;;;;;24.33;8.18;;;;;;;8.20;100.00;99665.44;5109986;27;20040;-75
2023/12/13 02:56:09;;;;;;;20.75;6.70;;;;;;;8.30;100.00;99650.50;5086857;27;20036;-75
2023/12/13 02:58:37;;;;;;;15.60;8.20;;;;;;;8.34;100.00;99653.81;5104581;27;20904;-75
2023/12/13 03:01:11;;;;;;;19.35;8.48;;;;;;;8.37;100.00;99649.13;5106715;27;20264;-75
2023/12/13 03:03:37;;;;;;;17.38;8.90;;;;;;;8.32;100.00;99641.47;5110775;27;20090;-75
2023/12/13 03:06:07;;;;;;;24.63;10.30;;;;;;;8.40;100.00;99648.91;5111663;27;20043;-76
2023/12/13 03:08:33;;;;;;;19.02;9.77;;;;;;;8.36;100.00;99643.91;5104564;27;20040;-75
2023/12/13 03:10:58;;;;;;;19.42;10.45;;;;;;;8.39;100.00;99647.22;5110725;27;20024;-75
2023/12/13 03:13:25;;;;;;;15.18;8.80;;;;;;;8.29;100.00;99640.84;5099339;27;20036;-76
2023/12/13 03:15:50;;;;;;;20.17;9.77;;;;;;;8.32;100.00;99640.63;5088101;27;20042;-75
2023/12/13 03:18:16;;;;;;;17.70;8.93;;;;;;;8.48;100.00;99635.03;5110323;27;20035;-75
2023/12/13 03:20:42;;;;;;;15.98;7.53;;;;;;;8.48;100.00;99641.25;5097429;27;20035;-75
2023/12/13 03:23:09;;;;;;;17.70;8.18;;;;;;;8.28;100.00;99644.44;5082962;27;20414;-75
2023/12/13 03:25:38;;;;;;;13.60;8.45;;;;;;;8.38;100.00;99648.16;5102211;27;20039;-77
2023/12/13 03:28:06;;;;;;;18.85;9.05;;;;;;;8.45;100.00;99640.59;5086492;27;20032;-76
2023/12/13 03:30:42;;;;;;;18.50;8.52;;;;;;;8.43;100.00;99647.81;5110614;27;20081;-76
2023/12/13 03:33:08;;;;;;;17.58;8.73;;;;;;;8.48;100.00;99645.69;5108020;27;20063;-75
2023/12/13 03:35:37;;;;;;;18.52;8.98;;;;;;;8.44;100.00;99641.56;5103952;27;21018;-76
2023/12/13 03:38:06;;;;;;;18.88;8.95;;;;;;;8.50;100.00;99636.66;5109373;27;20040;-75
2023/12/13 03:40:33;;;;;;;16.05;9.07;;;;;;;8.54;100.00;99638.13;5105362;27;20036;-75
2023/12/13 03:42:59;;;;;;;18.42;9.63;;;;;;;8.47;100.00;99636.84;5107265;27;20039;-75
2023/12/13 03:45:24;;;;;;;23.85;10.52;;;;;;;8.44;100.00;99633.59;5092692;27;20039;-74
2023/12/13 03:47:53;;;;;;;22.80;9.50;;;;;;;8.45;100.00;99635.28;5098418;27;20031;-75
2023/12/13 03:50:18;;;;;;;26.98;10.63;;;;;;;8.47;100.00;99633.34;5107722;27;20056;-75
2023/12/13 03:52:44;;;;;;;28.13;11.27;;;;;;;8.51;100.00;99632.19;5104680;27;20037;-74
2023/12/13 03:55:09;;;;;;;17.88;9.68;;;;;;;8.59;100.00;99634.28;5088618;27;20039;-76
2023/12/13 03:57:38;;;;;;;20.13;10.77;;;;;;;8.56;100.00;99638.84;5109751;27;20051;-77
2023/12/13 04:00:09;;;;;;;31.20;12.60;;;;;;;8.54;100.00;99635.47;5088822;27;20119;-75
2023/12/13 04:02:44;;;;;;;31.08;13.98;;;;;;;8.57;100.00;99631.72;5102275;27;20047;-77
2023/12/13 04:05:12;;;;;;;22.67;11.50;;;;;;;8.60;100.00;99631.50;5105376;27;20097;-75
2023/12/13 04:07:38;;;;;;;28.15;13.77;;;;;;;8.54;100.00;99632.81;5114864;27;20039;-76
2023/12/13 04:10:06;;;;;;;27.38;13.55;;;;;;;8.54;100.00;99630.16;5105012;27;20031;-76
2023/12/13 04:12:40;;;;;;;32.63;15.95;;;;;;;8.56;100.00;99632.69;5104005;27;20098;-76
2023/12/13 04:15:11;;;;;;;32.38;16.90;;;;;;;8.57;100.00;99642.34;5107056;27;20117;-75
2023/12/13 04:17:37;;;;;;;36.45;16.88;;;;;;;8.60;100.00;99638.63;5105629;27;20035;-75
2023/12/13 04:20:06;;;;;;;37.63;18.45;;;;;;;8.62;100.00;99634.03;5107788;27;20087;-76
2023/12/13 04:22:35;;;;;;;32.97;17.30;;;;;;;8.50;100.00;99634.00;5107340;27;20032;-75
2023/12/13 04:25:01;;;;;;;46.83;19.85;;;;;;;8.57;100.00;99635.22;5115606;27;20873;-76
2023/12/13 04:27:30;;;;;;;37.08;18.25;;;;;;;8.52;100.00;99626.75;5111457;27;20036;-75
2023/12/13 04:29:55;;;;;;;31.45;16.80;;;;;;;8.62;100.00;99636.69;5109441;27;20032;-76
2023/12/13 04:32:24;;;;;;;39.75;18.33;;;;;;;8.63;100.00;99630.41;5107218;27;20031;-75
2023/12/13 04:34:52;;;;;;;31.73;16.13;;;;;;;8.71;100.00;99639.50;5105055;27;20704;-76
2023/12/13 04:37:19;;;;;;;37.88;17.98;;;;;;;8.72;100.00;99629.72;5110407;27;20039;-74
2023/12/13 04:39:45;;;;;;;36.90;17.48;;;;;;;8.71;100.00;99631.53;5102297;27;20032;-75
2023/12/13 04:42:11;;;;;;;40.45;18.00;;;;;;;8.66;100.00;99636.34;5086873;28;20094;-76
2023/12/13 04:44:38;;;;;;;44.60;18.65;;;;;;;8.72;100.00;99627.91;5098341;27;20807;-74
2023/12/13 04:47:07;;;;;;;32.03;15.13;;;;;;;8.76;100.00;99634.69;5114034;27;20028;-75
2023/12/13 04:49:33;;;;;;;31.92;17.70;;;;;;;8.59;100.00;99623.66;5097458;27;20069;-75
2023/12/13 04:52:01;;;;;;;49.97;19.58;;;;;;;8.68;100.00;99633.56;5088823;28;20542;-75
2023/12/13 04:54:37;;;;;;;38.72;16.45;;;;;;;8.71;100.00;99631.53;5083885;28;20043;-76
2023/12/13 04:57:06;;;;;;;44.83;17.92;;;;;;;8.76;100.00;99631.19;5088440;28;20215;-74
2023/12/13 04:59:32;;;;;;;40.80;19.55;;;;;;;8.73;100.00;99620.78;5082559;28;20502;-76
2023/12/13 05:01:58;;;;;;;39.38;17.60;;;;;;;8.71;100.00;99620.91;5082355;28;20040;-76
2023/12/13 05:04:24;;;;;;;43.55;17.85;;;;;;;8.75;100.00;99624.19;5083318;28;20040;-75
2023/12/13 05:06:50;;;;;;;40.22;18.45;;;;;;;8.70;100.00;99623.69;5087918;28;20034;-76
2023/12/13 05:09:15;;;;;;;53.45;22.00;;;;;;;8.71;100.00;99622.72;5068487;28;20135;-76
2023/12/13 05:11:41;;;;;;;47.35;20.95;;;;;;;8.62;100.00;99626.06;5084697;28;20066;-76
2023/12/13 05:14:07;;;;;;;56.38;20.80;;;;;;;8.60;100.00;99623.53;5087575;28;20044;-76
2023/12/13 05:16:33;;;;;;;65.60;23.20;;;;;;;8.57;100.00;99618.44;5084138;28;20036;-77
2023/12/13 05:18:59;;;;;;;48.53;19.27;;;;;;;8.57;100.00;99624.59;5088153;28;20090;-75
2023/12/13 05:21:24;;;;;;;44.25;19.20;;;;;;;8.61;100.00;99621.72;5092131;28;20043;-75
2023/12/13 05:23:53;;;;;;;34.38;17.70;;;;;;;8.62;100.00;99621.59;5085584;28;20521;-75
2023/12/13 05:26:18;;;;;;;47.92;21.65;;;;;;;8.52;100.00;99621.44;5055943;28;20048;-75
2023/12/13 05:28:44;;;;;;;54.47;19.38;;;;;;;8.59;100.00;99627.16;5082844;28;20036;-75
2023/12/13 05:31:22;;;;;;;68.63;21.27;;;;;;;8.50;100.00;99614.53;5064189;28;20040;-75
2023/12/13 05:33:50;;;;;;;35.22;17.50;;;;;;;8.64;100.00;99630.31;5086387;28;20098;-75
2023/12/13 05:36:15;;;;;;;48.03;18.83;;;;;;;8.71;100.00;99620.91;5080626;28;20166;-75
2023/12/13 05:38:44;;;;;;;41.63;17.27;;;;;;;8.71;100.00;99615.59;5087174;28;20102;-76
2023/12/13 05:41:10;;;;;;;49.88;19.83;;;;;;;8.64;100.00;99622.34;5081831;28;20044;-75
2023/12/13 05:43:38;;;;;;;55.58;19.85;;;;;;;8.71;100.00;99620.91;5081112;28;20032;-76
2023/12/13 05:46:06;;;;;;;47.65;17.80;;;;;;;8.72;100.00;99617.28;5061367;28;20090;-76
2023/12/13 05:48:38;;;;;;;31.17;14.20;;;;;;;8.73;100.00;99623.44;5079010;28;20562;-76
2023/12/13 05:51:07;;;;;;;41.05;17.58;;;;;;;8.70;100.00;99621.88;5089859;27;20051;-75
2023/12/13 05:53:35;;;;;;;50.00;18.13;;;;;;;8.77;100.00;99625.75;5104657;27;20096;-75
2023/12/13 05:56:01;;;;;;;48.75;19.00;;;;;;;8.79;100.00;99623.00;5091361;27;20550;-75
2023/12/13 05:58:38;;;;;;;35.55;17.73;;;;;;;8.80;100.00;99620.22;5089620;27;43735;-75
2023/12/13 06:01:05;;;;;;;49.88;19.35;;;;;;;8.76;100.00;99616.09;5092015;27;20040;-75
2023/12/13 06:03:33;;;;;;;51.28;18.10;;;;;;;8.73;100.00;99620.78;5095208;27;20028;-75
2023/12/13 06:05:59;;;;;;;57.28;18.90;;;;;;;8.75;100.00;99621.53;5099753;27;20040;-77
2023/12/13 06:08:24;;;;;;;54.47;17.63;;;;;;;8.69;100.00;99614.03;5089318;27;20031;-76
2023/12/13 06:10:50;;;;;;;49.35;20.13;;;;;;;8.64;100.00;99616.19;5086731;27;20490;-76
2023/12/13 06:13:17;;;;;;;47.70;19.27;;;;;;;8.60;100.00;99620.88;5057074;28;20059;-76
2023/12/13 06:15:44;;;;;;;49.60;17.23;;;;;;;8.66;100.00;99627.53;5090628;27;20118;-76
2023/12/13 06:18:09;;;;;;;58.65;17.45;;;;;;;8.63;100.00;99623.28;5067268;28;20121;-77
2023/12/13 06:20:39;;;;;;;51.47;17.90;;;;;;;8.67;100.00;99621.25;5102733;27;20039;-76
2023/12/13 06:23:07;;;;;;;;;;;;;;;8.64;100.00;99619.69;5110916;27;20043;-76
2023/12/13 06:25:33;;;;;;;48.90;16.33;;;;;;;8.64;100.00;99624.16;5083811;28;20258;-77
2023/12/13 06:27:58;;;;;;;56.60;18.98;;;;;;;8.67;100.00;99638.03;5100642;27;20038;-76
2023/12/13 06:30:24;;;;;;;59.85;19.35;;;;;;;8.72;100.00;99638.53;5088379;27;20715;-76
2023/12/13 06:32:50;;;;;;;42.03;16.73;;;;;;;8.71;100.00;99634.19;5092884;27;20082;-77
2023/12/13 06:35:16;;;;;;;51.60;17.90;;;;;;;8.68;100.00;99636.22;5103011;27;20733;-76
2023/12/13 06:37:41;;;;;;;39.97;16.73;;;;;;;8.63;100.00;99625.94;5081381;27;20067;-76
2023/12/13 06:40:07;;;;;;;52.65;18.00;;;;;;;8.63;100.00;99628.59;5083127;27;20062;-75
2023/12/13 06:42:33;;;;;;;57.53;19.55;;;;;;;8.64;100.00;99635.63;5099824;27;20035;-77
2023/12/13 06:44:58;;;;;;;43.80;18.00;;;;;;;8.62;100.00;99632.22;5103137;27;20040;-75
2023/12/13 06:47:24;;;;;;;48.35;17.45;;;;;;;8.63;100.00;99635.72;5105674;27;20968;-77
2023/12/13 06:49:50;;;;;;;43.70;18.83;;;;;;;8.57;100.00;99632.56;5103040;27;21037;-76
2023/12/13 06:52:15;;;;;;;58.88;19.15;;;;;;;8.56;100.00;99643.31;5101916;27;20746;-77
2023/12/13 06:54:41;;;;;;;53.95;19.17;;;;;;;8.61;100.00;99642.97;5086375;27;20150;-75
2023/12/13 06:57:06;;;;;;;52.72;20.73;;;;;;;8.62;100.00;99645.50;5096779;27;20085;-76
2023/12/13 06:59:41;;;;;;;51.10;21.02;;;;;;;8.66;100.00;99646.13;5105032;27;20416;-76
2023/12/13 07:02:06;;;;;;;59.75;21.50;;;;;;;8.66;100.00;99651.44;5103879;27;20395;-76
2023/12/13 07:04:35;;;;;;;56.88;19.50;;;;;;;8.62;100.00;99649.97;5102282;27;20106;-77
2023/12/13 07:07:01;;;;;;;57.58;22.38;;;;;;;8.62;100.00;99652.63;5099388;27;20042;-77
2023/12/13 07:09:30;;;;;;;61.50;23.75;;;;;;;8.68;100.00;99655.66;5101807;27;20116;-76
2023/12/13 07:11:59;;;;;;;55.88;21.50;;;;;;;8.70;100.00;99656.41;5103683;27;20472;-76
2023/12/13 07:14:25;;;;;;;62.85;23.25;;;;;;;8.68;100.00;99655.66;5109653;27;20027;-76
2023/12/13 07:16:50;;;;;;;54.47;21.63;;;;;;;8.73;100.00;99656.16;5104557;27;20036;-77
2023/12/13 07:19:16;;;;;;;61.92;23.25;;;;;;;8.74;100.00;99655.22;5098859;27;20155;-77
2023/12/13 07:21:42;;;;;;;61.17;20.75;;;;;;;8.80;100.00;99661.91;5106872;27;20031;-76
2023/12/13 07:24:07;;;;;;;67.05;22.85;;;;;;;8.81;100.00;99655.63;5105903;27;20039;-77
2023/12/13 07:26:33;;;;;;;58.22;21.10;;;;;;;8.86;100.00;99657.94;5091750;27;20075;-77
2023/12/13 07:28:59;;;;;;;52.47;19.83;;;;;;;8.86;100.00;99655.28;5105499;27;20029;-76
2023/12/13 07:31:25;;;;;;;58.15;20.38;;;;;;;8.87;100.00;99657.81;5112501;27;20036;-77
2023/12/13 07:33:50;;;;;;;60.85;22.23;;;;;;;8.87;100.00;99654.28;5099848;27;20035;-76
2023/12/13 07:36:18;;;;;;;57.20;21.85;;;;;;;8.82;100.00;99652.81;5109004;27;20047;-75
2023/12/13 07:38:45;;;;;;;69.07;23.63;;;;;;;8.87;100.00;99654.28;5111576;27;20035;-77
2023/12/13 07:41:11;;;;;;;55.70;20.98;;;;;;;8.85;100.00;99659.75;5105460;27;20036;-77
2023/12/13 07:43:37;;;;;;;57.42;20.33;;;;;;;8.92;100.00;99660.97;5109712;27;20035;-76
2023/12/13 07:46:07;;;;;;;48.80;19.90;;;;;;;8.84;100.00;99662.53;5095766;27;20073;-76
2023/12/13 07:48:32;;;;;;;48.88;19.30;;;;;;;8.88;100.00;99663.97;5088493;27;20044;-77
2023/12/13 07:51:01;;;;;;;61.13;22.52;;;;;;;8.88;100.00;99666.63;5095428;27;20086;-76
2023/12/13 07:53:38;;;;;;;63.50;23.27;;;;;;;8.80;100.00;99664.56;5100280;27;20035;-76
2023/12/13 07:56:07;;;;;;;59.83;22.25;;;;;;;8.89;100.00;99666.53;5084417;27;20372;-76
2023/12/13 07:58:32;;;;;;;62.63;22.90;;;;;;;8.84;100.00;99674.00;5110944;27;20728;-76
2023/12/13 08:00:58;;;;;;;67.32;23.10;;;;;;;8.95;100.00;99674.03;5073397;28;20760;-77
2023/12/13 08:03:24;;;;;;;56.90;20.23;;;;;;;9.03;100.00;99668.13;5105197;27;20033;-76
2023/12/13 08:05:50;;;;;;;59.60;20.10;;;;;;;9.05;100.00;99668.88;5089798;27;20941;-76
2023/12/13 08:08:16;;;;;;;53.83;20.00;;;;;;;9.07;100.00;99669.59;5114000;27;20059;-76
2023/12/13 08:10:43;;;;;;;65.63;22.08;;;;;;;9.05;100.00;99663.56;5096281;27;20058;-77
2023/12/13 08:13:11;;;;;;;73.82;24.35;;;;;;;8.99;100.00;99666.69;5097243;27;20059;-76
2023/12/13 08:15:37;;;;;;;58.45;20.85;;;;;;;9.03;100.00;99668.13;5073575;27;20039;-76
2023/12/13 08:18:09;;;;;;;77.30;23.15;;;;;;;9.02;100.00;99669.94;5114816;27;20081;-77
2023/12/13 08:20:35;;;;;;;60.13;21.73;;;;;;;9.00;100.00;99676.34;5094566;27;20806;-76
2023/12/13 08:23:04;;;;;;;59.90;22.25;;;;;;;9.05;100.00;99672.38;5099772;27;20779;-77
2023/12/13 08:25:30;;;;;;;57.85;22.42;;;;;;;9.13;100.00;99668.28;5091472;27;20095;-75
2023/12/13 08:27:55;;;;;;;64.60;22.58;;;;;;;9.12;100.00;99670.09;5080410;28;20236;-76
2023/12/13 08:30:24;;;;;;;51.58;19.25;;;;;;;9.23;100.00;99677.25;5099769;27;20811;-76
2023/12/13 08:32:49;;;;;;;68.35;22.20;;;;;;;9.16;100.00;99670.72;5113252;27;20038;-77
2023/12/13 08:35:15;;;;;;;62.42;21.63;;;;;;;9.16;100.00;99671.56;5099704;27;20039;-77
2023/12/13 08:37:41;;;;;;;66.18;22.33;;;;;;;9.04;100.00;99676.00;5076719;27;20035;-76
2023/12/13 08:40:08;;;;;;;64.32;22.02;;;;;;;9.07;100.00;99685.53;5114267;27;20591;-76
2023/12/13 08:42:45;;;;;;;42.40;19.08;;;;;;;9.05;100.00;99685.66;5108589;27;20629;-76
2023/12/13 08:45:10;;;;;;;62.80;23.17;;;;;;;9.17;100.00;99685.69;5103289;27;20764;-76
2023/12/13 08:47:37;;;;;;;54.60;21.35;;;;;;;9.14;100.00;99692.13;5113492;27;20131;-76
2023/12/13 08:50:04;;;;;;;61.30;21.77;;;;;;;9.19;100.00;99689.09;5104286;27;20040;-76
2023/12/13 08:52:29;;;;;;;63.30;25.63;;;;;;;9.18;100.00;99690.88;5100704;27;20032;-76
2023/12/13 08:54:56;;;;;;;59.00;23.23;;;;;;;9.27;100.00;99692.00;5074977;28;20063;-76
2023/12/13 08:57:21;;;;;;;84.55;26.67;;;;;;;9.33;100.00;99689.72;5094345;27;20112;-75
2023/12/13 08:59:56;;;;;;;76.18;25.45;;;;;;;9.34;100.00;99683.44;5113413;27;20143;-76
2023/12/13 09:02:25;;;;;;;55.60;21.27;;;;;;;9.32;100.00;99682.69;5089808;27;20541;-76
2023/12/13 09:04:50;;;;;;;51.53;21.27;;;;;;;9.37;100.00;99686.84;5066079;27;20440;-76
2023/12/13 09:07:17;;;;;;;58.35;22.73;;;;;;;9.36;100.00;99685.97;5108640;27;20830;-76
2023/12/13 09:09:43;;;;;;;49.40;20.63;;;;;;;9.39;100.00;99682.22;5106210;27;20042;-76
2023/12/13 09:12:08;;;;;;;52.72;20.40;;;;;;;9.47;100.00;99693.13;5107350;27;20097;-76
2023/12/13 09:14:34;;;;;;;56.40;18.40;;;;;;;9.51;100.00;99691.94;5113791;27;20392;-75
2023/12/13 09:17:01;;;;;;;47.33;18.85;;;;;;;9.64;100.00;99689.16;5106483;27;20113;-77
2023/12/13 09:19:30;;;;;;;45.47;18.13;;;;;;;9.72;100.00;99687.59;5103989;27;20039;-76
2023/12/13 09:21:55;;;;;;;48.75;18.17;;;;;;;9.67;100.00;99695.09;5074275;28;20107;-76
2023/12/13 09:24:21;;;;;;;47.60;18.25;;;;;;;9.74;100.00;99691.00;5087923;28;20483;-75
2023/12/13 09:26:48;;;;;;;49.38;17.88;;;;;;;9.59;100.00;99684.22;5073947;28;20449;-76
2023/12/13 09:29:14;;;;;;;49.67;17.52;;;;;;;9.67;100.00;99691.59;5103769;27;20043;-77
2023/12/13 09:31:39;;;;;;;44.85;16.50;;;;;;;9.72;100.00;99686.75;5114366;27;20841;-77
2023/12/13 09:34:06;;;;;;;28.73;12.82;;;;;;;9.73;100.00;99691.09;5084381;28;20526;-77
2023/12/13 09:36:37;;;;;;;52.45;18.55;;;;;;;9.79;100.00;99693.31;5114290;27;20069;-76
2023/12/13 09:39:03;;;;;;;44.97;15.75;;;;;;;9.78;100.00;99691.59;5104016;27;20028;-77
2023/12/13 09:41:53;;;;;;;46.05;17.63;;;;;;;9.75;100.00;99702.50;5090150;27;20042;-76
2023/12/13 09:44:23;;;;;;;43.38;17.38;;;;;;;9.75;100.00;99705.16;5096071;27;20074;-77
2023/12/13 09:46:52;;;;;;;48.00;19.27;;;;;;;9.77;100.00;99704.06;5102518;27;20531;-77
2023/12/13 09:49:23;;;;;;;49.88;17.67;;;;;;;9.90;100.00;99709.28;5106290;27;20028;-77
2023/12/13 09:51:49;;;;;;;44.15;18.50;;;;;;;9.89;100.00;99704.94;5105464;27;20139;-76
2023/12/13 09:54:15;;;;;;;52.28;18.77;;;;;;;9.90;100.00;99706.63;5094101;28;20047;-76
2023/12/13 09:56:41;;;;;;;46.50;19.65;;;;;;;9.91;100.00;99713.63;5083749;28;20114;-77
2023/12/13 09:59:06;;;;;;;41.13;15.75;;;;;;;10.04;100.00;99721.47;5081104;28;20039;-76
2023/12/13 10:01:32;;;;;;;62.92;21.98;;;;;;;9.90;100.00;99721.75;5083796;28;20041;-77
2023/12/13 10:03:58;;;;;;;57.38;18.33;;;;;;;10.01;100.00;99724.41;5093153;28;20907;-76
2023/12/13 10:06:24;;;;;;;42.55;17.63;;;;;;;10.05;100.00;99724.03;5084106;28;20047;-77
2023/12/13 10:09:01;;;;;;;38.03;17.48;;;;;;;10.10;100.00;99723.69;5083087;28;20043;-77
2023/12/13 10:11:30;;;;;;;36.33;17.48;;;;;;;10.25;100.00;99725.16;5090081;27;20036;-77
2023/12/13 10:13:59;;;;;;;42.88;19.67;;;;;;;10.28;100.00;99719.56;5092682;27;20039;-77
2023/12/13 10:16:27;;;;;;;45.92;18.75;;;;;;;10.13;100.00;99716.28;5087233;27;20116;-76
2023/12/13 10:18:53;;;;;;;40.60;18.50;;;;;;;10.43;100.00;99713.97;5092400;28;20776;-77
2023/12/13 10:21:18;;;;;;;38.85;18.10;;;;;;;10.51;100.00;99715.06;5087383;27;20048;-77
2023/12/13 10:23:44;;;;;;;35.88;18.67;;;;;;;10.58;100.00;99715.41;5090999;28;20036;-76
2023/12/13 10:26:16;;;;;;;52.25;22.13;;;;;;;10.50;100.00;99713.38;5089871;28;20040;-77
2023/12/13 10:28:41;;;;;;;46.85;19.30;;;;;;;10.51;100.00;99716.88;5090089;27;20127;-77
2023/12/13 10:31:07;;;;;;;46.13;20.67;;;;;;;10.53;100.00;99721.09;5103861;27;20040;-77
2023/12/13 10:33:33;;;;;;;39.55;18.70;;;;;;;10.51;100.00;99715.06;5079780;27;20035;-77
2023/12/13 10:35:59;;;;;;;41.42;17.50;;;;;;;10.49;100.00;99710.81;5085152;27;20059;-77
2023/12/13 10:38:26;;;;;;;40.97;20.02;;;;;;;10.46;100.00;99711.91;5088266;28;20039;-76
2023/12/13 10:40:53;;;;;;;39.72;19.30;;;;;;;10.44;100.00;99713.88;5094049;28;20149;-76
2023/12/13 10:43:24;;;;;;;38.42;19.48;;;;;;;10.46;100.00;99711.91;5095613;27;20028;-77
2023/12/13 10:45:59;;;;;;;44.28;19.42;;;;;;;10.38;100.00;99719.66;5087249;28;20047;-77
2023/12/13 10:48:39;;;;;;;42.83;19.63;;;;;;;10.36;100.00;99716.28;5084580;28;20134;-77
2023/12/13 10:51:12;;;;;;;36.58;18.63;;;;;;;10.36;100.00;99718.97;5089548;27;20891;-77
2023/12/13 10:53:41;;;;;;;44.55;21.02;;;;;;;10.48;100.00;99714.44;5087376;27;20036;-77
2023/12/13 10:56:08;;;;;;;40.78;19.02;;;;;;;10.45;100.00;99706.72;5085438;27;20094;-76
2023/12/13 10:58:34;;;;;;;40.15;17.38;;;;;;;10.41;100.00;99727.44;5105555;27;20113;-77
2023/12/13 11:01:11;;;;;;;32.58;18.25;;;;;;;10.43;100.00;99708.66;5108802;27;20839;-77
2023/12/13 11:03:52;;;;;;;40.67;18.40;;;;;;;10.36;100.00;99725.13;5095818;27;20047;-76
2023/12/13 11:06:17;;;;;;;34.83;17.08;;;;;;;10.37;100.00;99723.31;5094856;27;20163;-75
2023/12/13 11:08:44;;;;;;;25.80;14.63;;;;;;;10.23;100.00;99713.72;5112715;27;20555;-76
2023/12/13 11:11:14;;;;;;;34.28;16.15;;;;;;;10.26;100.00;99723.34;5090370;27;20106;-77
2023/12/13 11:13:54;;;;;;;37.72;17.00;;;;;;;10.27;100.00;99725.88;5099572;27;20043;-76
2023/12/13 11:16:25;;;;;;;37.45;17.15;;;;;;;10.31;100.00;99729.16;5087539;27;20577;-76
2023/12/13 11:19:02;;;;;;;34.15;16.77;;;;;;;10.32;100.00;99734.34;5111098;27;20036;-77